sensor_id;sensor_type;location;lat;lon;timestamp;pressure;altitude;pressure_sealevel;temperature;humidity
13732;BME280;6937;56.096;12.664;2023-04-02T00:00:34;101663.53;;;1.48;100.00
13732;BME280;6937;56.096;12.664;2023-04-02T00:03:04;101655.66;;;1.48;100.00
13732;BME280;6937;56.096;12.664;2023-04-02T00:08:27;101667.16;;;1.43;100.00
13732;BME280;6937;56.096;12.664;2023-04-02T00:10:58;101664.56;;;1.42;100.00
13732;BME280;6937;56.096;12.664;2023-04-02T00:13:34;101662.00;;;1.37;100.00
13732;BME280;6937;56.096;12.664;2023-04-02T00:16:01;101663.91;;;1.31;100.00
13732;BME280;6937;56.096;12.664;2023-04-02T00:18:27;101668.31;;;1.30;100.00
13732;BME280;6937;56.096;12.664;2023-04-02T00:21:09;101676.19;;;1.30;100.00
13732;BME280;6937;56.096;12.664;2023-04-02T00:23:38;101672.69;;;1.30;100.00
13732;BME280;6937;56.096;12.664;2023-04-02T00:28:49;101678.84;;;1.30;100.00
13732;BME280;6937;56.096;12.664;2023-04-02T00:31:17;101677.16;;;1.26;100.00
13732;BME280;6937;56.096;12.664;2023-04-02T00:33:43;101692.09;;;1.24;100.00
13732;BME280;6937;56.096;12.664;2023-04-02T00:36:08;101690.38;;;1.23;100.00
13732;BME280;6937;56.096;12.664;2023-04-02T00:38:34;101686.84;;;1.24;100.00
13732;BME280;6937;56.096;12.664;2023-04-02T00:41:04;101690.41;;;1.20;100.00
13732;BME280;6937;56.096;12.664;2023-04-02T00:43:34;101679.94;;;1.19;100.00
13732;BME280;6937;56.096;12.664;2023-04-02T00:46:03;101686.97;;;1.17;100.00
13732;BME280;6937;56.096;12.664;2023-04-02T00:49:01;101694.06;;;1.13;100.00
13732;BME280;6937;56.096;12.664;2023-04-02T00:51:37;101691.50;;;1.12;100.00
13732;BME280;6937;56.096;12.664;2023-04-02T00:54:09;101695.00;;;1.11;100.00
13732;BME280;6937;56.096;12.664;2023-04-02T00:56:43;101694.13;;;1.10;100.00
13732;BME280;6937;56.096;12.664;2023-04-02T00:59:19;101695.91;;;1.10;100.00
13732;BME280;6937;56.096;12.664;2023-04-02T01:01:51;101695.97;;;1.07;100.00
13732;BME280;6937;56.096;12.664;2023-04-02T01:04:33;101695.97;;;1.07;100.00
13732;BME280;6937;56.096;12.664;2023-04-02T01:07:04;101697.75;;;1.05;100.00
13732;BME280;6937;56.096;12.664;2023-04-02T01:14:57;101704.88;;;0.98;100.00
13732;BME280;6937;56.096;12.664;2023-04-02T01:23:27;101698.72;;;0.99;100.00
13732;BME280;6937;56.096;12.664;2023-04-02T01:26:04;101690.91;;;0.96;100.00
13732;BME280;6937;56.096;12.664;2023-04-02T01:29:11;101698.81;;;0.94;100.00
13732;BME280;6937;56.096;12.664;2023-04-02T01:31:38;101700.66;;;0.89;100.00
13732;BME280;6937;56.096;12.664;2023-04-02T01:34:06;101698.06;;;0.88;100.00
13732;BME280;6937;56.096;12.664;2023-04-02T01:36:44;101703.31;;;0.86;100.00
13732;BME280;6937;56.096;12.664;2023-04-02T01:39:26;101711.22;;;0.88;100.00
13732;BME280;6937;56.096;12.664;2023-04-02T01:42:23;101713.03;;;0.84;100.00
13732;BME280;6937;56.096;12.664;2023-04-02T01:44:59;101715.66;;;0.86;100.00
13732;BME280;6937;56.096;12.664;2023-04-02T01:47:25;101721.78;;;0.85;100.00
13732;BME280;6937;56.096;12.664;2023-04-02T01:50:25;101715.66;;;0.83;100.00
13732;BME280;6937;56.096;12.664;2023-04-02T01:52:50;101721.03;;;0.78;100.00
13732;BME280;6937;56.096;12.664;2023-04-02T01:55:28;101725.38;;;0.81;100.00
13732;BME280;6937;56.096;12.664;2023-04-02T01:57:54;101734.22;;;0.77;100.00
13732;BME280;6937;56.096;12.664;2023-04-02T02:00:21;101740.34;;;0.76;100.00
13732;BME280;6937;56.096;12.664;2023-04-02T02:02:49;101755.25;;;0.78;100.00
13732;BME280;6937;56.096;12.664;2023-04-02T02:05:18;101753.50;;;0.76;100.00
13732;BME280;6937;56.096;12.664;2023-04-02T02:07:55;101759.69;;;0.75;100.00
13732;BME280;6937;56.096;12.664;2023-04-02T02:10:41;101771.94;;;0.76;100.00
13732;BME280;6937;56.096;12.664;2023-04-02T02:13:13;101767.53;;;0.76;100.00
13732;BME280;6937;56.096;12.664;2023-04-02T02:15:38;101774.59;;;0.74;100.00
13732;BME280;6937;56.096;12.664;2023-04-02T02:18:04;101792.16;;;0.72;100.00
13732;BME280;6937;56.096;12.664;2023-04-02T02:20:31;101790.41;;;0.71;100.00
13732;BME280;6937;56.096;12.664;2023-04-02T02:22:59;101793.97;;;0.69;100.00
13732;BME280;6937;56.096;12.664;2023-04-02T02:25:28;101813.25;;;0.71;100.00
13732;BME280;6937;56.096;12.664;2023-04-02T02:28:14;101814.13;;;0.68;100.00
13732;BME280;6937;56.096;12.664;2023-04-02T02:30:58;101820.34;;;0.64;100.00
13732;BME280;6937;56.096;12.664;2023-04-02T02:33:48;101830.91;;;0.61;100.00
13732;BME280;6937;56.096;12.664;2023-04-02T02:36:21;101830.03;;;0.61;100.00
13732;BME280;6937;56.096;12.664;2023-04-02T02:38:52;101844.06;;;0.63;100.00
13732;BME280;6937;56.096;12.664;2023-04-02T02:41:45;101841.44;;;0.61;100.00
13732;BME280;6937;56.096;12.664;2023-04-02T02:44:20;101854.63;;;0.60;100.00
13732;BME280;6937;56.096;12.664;2023-04-02T02:46:53;101860.72;;;0.60;100.00
13732;BME280;6937;56.096;12.664;2023-04-02T02:49:25;101859.88;;;0.60;100.00
13732;BME280;6937;56.096;12.664;2023-04-02T02:52:02;101873.97;;;0.56;100.00
13732;BME280;6937;56.096;12.664;2023-04-02T02:54:34;101873.13;;;0.52;100.00
13732;BME280;6937;56.096;12.664;2023-04-02T02:57:03;101881.91;;;0.51;100.00
13732;BME280;6937;56.096;12.664;2023-04-02T02:59:31;101891.56;;;0.51;100.00
13732;BME280;6937;56.096;12.664;2023-04-02T03:01:59;101890.69;;;0.50;100.00
13732;BME280;6937;56.096;12.664;2023-04-02T03:04:25;101895.06;;;0.49;100.00
13732;BME280;6937;56.096;12.664;2023-04-02T03:06:56;101908.25;;;0.48;100.00
13732;BME280;6937;56.096;12.664;2023-04-02T03:09:35;101914.41;;;0.45;100.00
13732;BME280;6937;56.096;12.664;2023-04-02T03:17:54;101927.69;;;0.36;100.00
13732;BME280;6937;56.096;12.664;2023-04-02T03:20:36;101930.34;;;0.30;100.00
13732;BME280;6937;56.096;12.664;2023-04-02T03:23:13;101936.53;;;0.29;100.00
13732;BME280;6937;56.096;12.664;2023-04-02T03:25:51;101935.66;;;0.27;100.00
13732;BME280;6937;56.096;12.664;2023-04-02T03:28:22;101950.56;;;0.27;100.00
13732;BME280;6937;56.096;12.664;2023-04-02T03:30:55;101945.34;;;0.25;100.00
13732;BME280;6937;56.096;12.664;2023-04-02T03:33:34;101961.09;;;0.25;100.00
13732;BME280;6937;56.096;12.664;2023-04-02T03:36:10;101954.97;;;0.25;100.00
13732;BME280;6937;56.096;12.664;2023-04-02T03:38:49;101952.34;;;0.25;100.00
13732;BME280;6937;56.096;12.664;2023-04-02T03:43:50;101975.13;;;0.23;100.00
13732;BME280;6937;56.096;12.664;2023-04-02T03:48:47;101975.22;;;0.18;100.00
13732;BME280;6937;56.096;12.664;2023-04-02T03:51:23;101977.00;;;0.13;100.00
13732;BME280;6937;56.096;12.664;2023-04-02T03:53:52;101988.47;;;0.06;100.00
13732;BME280;6937;56.096;12.664;2023-04-02T03:56:36;101991.16;;;0.00;100.00
13732;BME280;6937;56.096;12.664;2023-04-02T04:04:59;101993.91;;;-0.14;100.00
13732;BME280;6937;56.096;12.664;2023-04-02T04:07:35;102000.91;;;-0.13;100.00
13732;BME280;6937;56.096;12.664;2023-04-02T04:10:03;102009.66;;;-0.14;100.00
13732;BME280;6937;56.096;12.664;2023-04-02T04:12:41;102007.94;;;-0.16;100.00
13732;BME280;6937;56.096;12.664;2023-04-02T04:18:03;102015.84;;;-0.19;100.00
13732;BME280;6937;56.096;12.664;2023-04-02T04:23:09;102028.16;;;-0.23;100.00
13732;BME280;6937;56.096;12.664;2023-04-02T04:25:35;102022.03;;;-0.23;100.00
13732;BME280;6937;56.096;12.664;2023-04-02T04:28:25;102027.28;;;-0.23;100.00
13732;BME280;6937;56.096;12.664;2023-04-02T04:31:31;102025.53;;;-0.23;100.00
13732;BME280;6937;56.096;12.664;2023-04-02T04:34:07;102021.13;;;-0.25;100.00
13732;BME280;6937;56.096;12.664;2023-04-02T04:36:40;102018.53;;;-0.28;100.00
13732;BME280;6937;56.096;12.664;2023-04-02T04:39:17;102021.13;;;-0.25;100.00
13732;BME280;6937;56.096;12.664;2023-04-02T04:41:47;102022.91;;;-0.27;100.00
13732;BME280;6937;56.096;12.664;2023-04-02T04:44:24;102023.78;;;-0.28;100.00
13732;BME280;6937;56.096;12.664;2023-04-02T04:49:44;102034.34;;;-0.31;100.00
13732;BME280;6937;56.096;12.664;2023-04-02T04:52:24;102036.97;;;-0.31;100.00
13732;BME280;6937;56.096;12.664;2023-04-02T04:54:50;102047.44;;;-0.30;100.00
13732;BME280;6937;56.096;12.664;2023-04-02T04:57:30;102048.31;;;-0.26;100.00
13732;BME280;6937;56.096;12.664;2023-04-02T05:03:05;102047.41;;;-0.25;100.00
13732;BME280;6937;56.096;12.664;2023-04-02T05:05:30;102071.94;;;-0.23;100.00
13732;BME280;6937;56.096;12.664;2023-04-02T05:08:04;102059.63;;;-0.21;100.00
13732;BME280;6937;56.096;12.664;2023-04-02T05:11:14;102064.88;;;-0.17;100.00
13732;BME280;6937;56.096;12.664;2023-04-02T05:13:50;102062.22;;;-0.14;100.00
13732;BME280;6937;56.096;12.664;2023-04-02T05:17:01;102073.56;;;-0.10;100.00
13732;BME280;6937;56.096;12.664;2023-04-02T05:19:40;102077.06;;;-0.08;100.00
13732;BME280;6937;56.096;12.664;2023-04-02T05:22:19;102086.66;;;-0.06;100.00
13732;BME280;6937;56.096;12.664;2023-04-02T05:24:59;102077.00;;;-0.01;100.00
13732;BME280;6937;56.096;12.664;2023-04-02T05:33:45;102107.59;;;0.08;100.00
13732;BME280;6937;56.096;12.664;2023-04-02T05:36:21;102104.94;;;0.10;100.00
13732;BME280;6937;56.096;12.664;2023-04-02T05:38:48;102105.75;;;0.16;100.00
13732;BME280;6937;56.096;12.664;2023-04-02T05:41:42;102111.88;;;0.20;100.00
13732;BME280;6937;56.096;12.664;2023-04-02T05:44:35;102112.75;;;0.20;100.00
13732;BME280;6937;56.096;12.664;2023-04-02T05:52:41;102131.06;;;0.31;100.00
13732;BME280;6937;56.096;12.664;2023-04-02T05:57:42;102135.38;;;0.38;100.00
13732;BME280;6937;56.096;12.664;2023-04-02T06:00:24;102142.34;;;0.42;100.00
13732;BME280;6937;56.096;12.664;2023-04-02T06:02:57;102150.25;;;0.45;100.00
13732;BME280;6937;56.096;12.664;2023-04-02T06:05:31;102153.72;;;0.48;100.00
13732;BME280;6937;56.096;12.664;2023-04-02T06:08:04;102159.81;;;0.52;100.00
13732;BME280;6937;56.096;12.664;2023-04-02T06:10:40;102162.44;;;0.52;100.00
13732;BME280;6937;56.096;12.664;2023-04-02T06:13:10;102170.28;;;0.57;100.00
13732;BME280;6937;56.096;12.664;2023-04-02T06:15:40;102172.88;;;0.63;100.00
13732;BME280;6937;56.096;12.664;2023-04-02T06:18:18;102183.38;;;0.64;100.00
13732;BME280;6937;56.096;12.664;2023-04-02T06:20:45;102178.97;;;0.66;100.00
13732;BME280;6937;56.096;12.664;2023-04-02T06:23:12;102189.47;;;0.71;100.00
13732;BME280;6937;56.096;12.664;2023-04-02T06:25:43;102190.28;;;0.76;100.00
13732;BME280;6937;56.096;12.664;2023-04-02T06:28:18;102191.13;;;0.81;100.00
13732;BME280;6937;56.096;12.664;2023-04-02T06:30:46;102197.22;;;0.84;100.00
13732;BME280;6937;56.096;12.664;2023-04-02T06:33:12;102200.66;;;0.92;100.00
13732;BME280;6937;56.096;12.664;2023-04-02T06:35:41;102206.81;;;0.93;100.00
13732;BME280;6937;56.096;12.664;2023-04-02T06:38:15;102208.53;;;0.97;100.00
13732;BME280;6937;56.096;12.664;2023-04-02T06:40:53;102216.38;;;0.98;100.00
13732;BME280;6937;56.096;12.664;2023-04-02T06:43:26;102213.72;;;1.02;100.00
13732;BME280;6937;56.096;12.664;2023-04-02T06:45:58;102230.34;;;1.05;100.00
13732;BME280;6937;56.096;12.664;2023-04-02T06:48:27;102235.56;;;1.10;100.00
13732;BME280;6937;56.096;12.664;2023-04-02T06:50:57;102239.03;;;1.15;100.00
13732;BME280;6937;56.096;12.664;2023-04-02T06:53:33;102253.00;;;1.23;100.00
13732;BME280;6937;56.096;12.664;2023-04-02T06:58:51;102258.19;;;1.30;100.00
13732;BME280;6937;56.096;12.664;2023-04-02T07:01:21;102255.53;;;1.32;100.00
13732;BME280;6937;56.096;12.664;2023-04-02T07:03:47;102266.03;;;1.36;100.00
13732;BME280;6937;56.096;12.664;2023-04-02T07:06:18;102273.00;;;1.42;100.00
13732;BME280;6937;56.096;12.664;2023-04-02T07:08:44;102278.22;;;1.43;100.00
13732;BME280;6937;56.096;12.664;2023-04-02T07:11:19;102279.06;;;1.47;100.00
13732;BME280;6937;56.096;12.664;2023-04-02T07:13:46;102284.31;;;1.50;100.00
13732;BME280;6937;56.096;12.664;2023-04-02T07:16:16;102289.44;;;1.64;100.00
13732;BME280;6937;56.096;12.664;2023-04-02T07:18:42;102291.94;;;1.74;100.00
13732;BME280;6937;56.096;12.664;2023-04-02T07:21:08;102285.75;;;1.80;100.00
13732;BME280;6937;56.096;12.664;2023-04-02T07:23:33;102294.41;;;1.88;100.00
13732;BME280;6937;56.096;12.664;2023-04-02T07:25:59;102295.25;;;1.91;100.00
13732;BME280;6937;56.096;12.664;2023-04-02T07:28:26;102304.84;;;1.99;100.00
13732;BME280;6937;56.096;12.664;2023-04-02T07:30:53;102290.75;;;2.00;100.00
13732;BME280;6937;56.096;12.664;2023-04-02T07:33:21;102307.41;;;2.06;100.00
13732;BME280;6937;56.096;12.664;2023-04-02T07:35:48;102313.41;;;2.17;100.00
13732;BME280;6937;56.096;12.664;2023-04-02T07:38:14;102314.13;;;2.28;100.00
13732;BME280;6937;56.096;12.664;2023-04-02T07:40:39;102316.63;;;2.37;100.00
13732;BME280;6937;56.096;12.664;2023-04-02T07:43:05;102327.13;;;2.42;100.00
13732;BME280;6937;56.096;12.664;2023-04-02T07:45:31;102332.34;;;2.45;100.00
13732;BME280;6937;56.096;12.664;2023-04-02T07:47:56;102333.97;;;2.55;100.00
13732;BME280;6937;56.096;12.664;2023-04-02T07:50:22;102339.16;;;2.61;100.00
13732;BME280;6937;56.096;12.664;2023-04-02T07:52:48;102349.78;;;2.58;100.00
13732;BME280;6937;56.096;12.664;2023-04-02T07:55:15;102347.03;;;2.63;100.00
13732;BME280;6937;56.096;12.664;2023-04-02T07:57:50;102353.97;;;2.73;100.00
13732;BME280;6937;56.096;12.664;2023-04-02T08:00:17;102359.13;;;2.79;100.00
13732;BME280;6937;56.096;12.664;2023-04-02T08:02:42;102374.88;;;2.85;100.00
13732;BME280;6937;56.096;12.664;2023-04-02T08:05:08;102376.53;;;2.93;100.00
13732;BME280;6937;56.096;12.664;2023-04-02T08:07:34;102373.75;;;3.03;100.00
13732;BME280;6937;56.096;12.664;2023-04-02T08:10:00;102387.63;;;3.15;100.00
13732;BME280;6937;56.096;12.664;2023-04-02T08:12:26;102395.41;;;3.24;100.00
13732;BME280;6937;56.096;12.664;2023-04-02T08:14:51;102393.53;;;3.32;100.00
13732;BME280;6937;56.096;12.664;2023-04-02T08:17:17;102403.03;;;3.42;100.00
13732;BME280;6937;56.096;12.664;2023-04-02T08:19:42;102410.00;;;3.47;100.00
13732;BME280;6937;56.096;12.664;2023-04-02T08:22:09;102416.94;;;3.54;100.00
13732;BME280;6937;56.096;12.664;2023-04-02T08:24:34;102415.03;;;3.62;100.00
13732;BME280;6937;56.096;12.664;2023-04-02T08:26:59;102424.59;;;3.69;100.00
13732;BME280;6937;56.096;12.664;2023-04-02T08:29:26;102434.91;;;3.84;100.00
13732;BME280;6937;56.096;12.664;2023-04-02T08:31:56;102443.53;;;3.95;100.00
13732;BME280;6937;56.096;12.664;2023-04-02T08:34:22;102451.25;;;4.07;100.00
13732;BME280;6937;56.096;12.664;2023-04-02T08:36:47;102444.94;;;4.14;100.00
13732;BME280;6937;56.096;12.664;2023-04-02T08:39:12;102453.69;;;4.19;100.00
13732;BME280;6937;56.096;12.664;2023-04-02T08:41:57;102452.59;;;4.28;100.00
13732;BME280;6937;56.096;12.664;2023-04-02T08:44:39;102458.78;;;4.28;100.00
13732;BME280;6937;56.096;12.664;2023-04-02T08:47:09;102471.03;;;4.32;100.00
13732;BME280;6937;56.096;12.664;2023-04-02T08:49:54;102470.00;;;4.41;100.00
13732;BME280;6937;56.096;12.664;2023-04-02T08:52:29;102495.38;;;4.53;100.00
13732;BME280;6937;56.096;12.664;2023-04-02T08:54:55;102501.34;;;4.62;100.00
13732;BME280;6937;56.096;12.664;2023-04-02T09:02:46;102517.66;;;4.85;100.00
13732;BME280;6937;56.096;12.664;2023-04-02T09:05:21;102519.25;;;4.94;100.00
13732;BME280;6937;56.096;12.664;2023-04-02T09:07:48;102526.16;;;5.00;100.00
13732;BME280;6937;56.096;12.664;2023-04-02T09:10:15;102532.19;;;5.08;100.00
13732;BME280;6937;56.096;12.664;2023-04-02T09:12:42;102532.69;;;5.25;100.00
13732;BME280;6937;56.096;12.664;2023-04-02T09:17:35;102546.47;;;5.41;100.00
13732;BME280;6937;56.096;12.664;2023-04-02T09:20:14;102556.72;;;5.57;100.00
13732;BME280;6937;56.096;12.664;2023-04-02T09:22:46;102558.31;;;5.64;100.00
13732;BME280;6937;56.096;12.664;2023-04-02T09:25:21;102563.44;;;5.72;100.00
13732;BME280;6937;56.096;12.664;2023-04-02T09:27:49;102565.06;;;5.77;100.00
13732;BME280;6937;56.096;12.664;2023-04-02T09:32:52;102568.47;;;5.82;100.00
13732;BME280;6937;56.096;12.664;2023-04-02T09:35:26;102577.88;;;5.99;100.00
13732;BME280;6937;56.096;12.664;2023-04-02T09:40:59;102589.91;;;6.12;100.00
13732;BME280;6937;56.096;12.664;2023-04-02T09:43:31;102602.91;;;6.22;100.00
13732;BME280;6937;56.096;12.664;2023-04-02T09:48:35;102612.31;;;6.37;100.00
13732;BME280;6937;56.096;12.664;2023-04-02T09:53:40;102630.38;;;6.57;100.00
13732;BME280;6937;56.096;12.664;2023-04-02T09:56:11;102634.66;;;6.62;100.00
13732;BME280;6937;56.096;12.664;2023-04-02T09:58:38;102640.19;;;6.87;100.00
13732;BME280;6937;56.096;12.664;2023-04-02T10:01:04;102655.72;;;7.02;100.00
13732;BME280;6937;56.096;12.664;2023-04-02T10:03:33;102647.50;;;7.11;100.00
13732;BME280;6937;56.096;12.664;2023-04-02T10:08:36;102663.34;;;7.16;100.00
13732;BME280;6937;56.096;12.664;2023-04-02T10:11:09;102673.09;;;7.15;100.00
13732;BME280;6937;56.096;12.664;2023-04-02T10:16:23;102684.56;;;7.17;100.00
13732;BME280;6937;56.096;12.664;2023-04-02T10:18:53;102685.41;;;7.19;100.00
13732;BME280;6937;56.096;12.664;2023-04-02T10:21:44;102689.53;;;7.29;100.00
13732;BME280;6937;56.096;12.664;2023-04-02T10:24:14;102703.50;;;7.38;100.00
13732;BME280;6937;56.096;12.664;2023-04-02T10:26:50;102709.38;;;7.49;100.00
13732;BME280;6937;56.096;12.664;2023-04-02T10:30:10;102709.06;;;7.59;100.00
13732;BME280;6937;56.096;12.664;2023-04-02T10:32:18;102719.53;;;7.65;100.00
13732;BME280;6937;56.096;12.664;2023-04-02T10:34:56;102721.94;;;7.74;100.00
13732;BME280;6937;56.096;12.664;2023-04-02T10:37:41;102725.34;;;7.80;100.00
13732;BME280;6937;56.096;12.664;2023-04-02T10:40:47;102724.19;;;7.88;100.00
13732;BME280;6937;56.096;12.664;2023-04-02T10:43:27;102723.91;;;7.97;100.00
13732;BME280;6937;56.096;12.664;2023-04-02T10:46:05;102740.44;;;8.08;100.00
13732;BME280;6937;56.096;12.664;2023-04-02T10:56:27;102759.13;;;8.36;100.00
13732;BME280;6937;56.096;12.664;2023-04-02T10:59:06;102750.50;;;8.56;100.00
13732;BME280;6937;56.096;12.664;2023-04-02T11:01:34;102766.47;;;8.57;100.00
13732;BME280;6937;56.096;12.664;2023-04-02T11:04:24;102761.81;;;8.62;100.00
13732;BME280;6937;56.096;12.664;2023-04-02T11:07:01;102767.16;;;8.62;100.00
13732;BME280;6937;56.096;12.664;2023-04-02T11:09:31;102771.53;;;8.65;100.00
13732;BME280;6937;56.096;12.664;2023-04-02T11:11:59;102772.97;;;8.75;100.00
13732;BME280;6937;56.096;12.664;2023-04-02T11:14:28;102790.88;;;8.71;100.00
13732;BME280;6937;56.096;12.664;2023-04-02T11:16:55;102774.75;;;8.74;100.00
13732;BME280;6937;56.096;12.664;2023-04-02T11:19:31;102777.94;;;8.86;100.00
13732;BME280;6937;56.096;12.664;2023-04-02T11:24:38;102782.00;;;8.97;100.00
13732;BME280;6937;56.096;12.664;2023-04-02T11:32:38;102786.91;;;9.11;100.00
13732;BME280;6937;56.096;12.664;2023-04-02T11:35:24;102791.25;;;9.38;100.00
13732;BME280;6937;56.096;12.664;2023-04-02T11:37:50;102802.44;;;9.49;100.00
13732;BME280;6937;56.096;12.664;2023-04-02T11:42:51;102799.19;;;9.66;100.00
13732;BME280;6937;56.096;12.664;2023-04-02T11:50:39;102804.44;;;9.92;100.00
13732;BME280;6937;56.096;12.664;2023-04-02T11:55:45;102802.00;;;10.09;100.00
13732;BME280;6937;56.096;12.664;2023-04-02T11:58:40;102812.00;;;10.04;100.00
13732;BME280;6937;56.096;12.664;2023-04-02T12:04:24;102807.56;;;10.50;100.00
13732;BME280;6937;56.096;12.664;2023-04-02T12:07:18;102812.63;;;10.57;100.00
13732;BME280;6937;56.096;12.664;2023-04-02T12:09:53;102815.81;;;10.89;100.00
13732;BME280;6937;56.096;12.664;2023-04-02T12:14:50;102820.16;;;11.13;100.00
13732;BME280;6937;56.096;12.664;2023-04-02T12:19:47;102825.59;;;11.32;100.00
13732;BME280;6937;56.096;12.664;2023-04-02T12:22:22;102828.94;;;11.37;100.00
13732;BME280;6937;56.096;12.664;2023-04-02T12:24:49;102820.25;;;11.52;100.00
13732;BME280;6937;56.096;12.664;2023-04-02T12:27:21;102816.97;;;11.66;100.00
13732;BME280;6937;56.096;12.664;2023-04-02T12:29:49;102826.97;;;11.62;100.00
13732;BME280;6937;56.096;12.664;2023-04-02T12:32:35;102824.66;;;11.53;100.00
13732;BME280;6937;56.096;12.664;2023-04-02T12:35:02;102814.63;;;11.78;100.00
13732;BME280;6937;56.096;12.664;2023-04-02T12:37:29;102825.75;;;11.69;98.29
13732;BME280;6937;56.096;12.664;2023-04-02T12:42:28;102823.72;;;12.15;96.11
13732;BME280;6937;56.096;12.664;2023-04-02T12:44:55;102827.41;;;12.31;94.25
13732;BME280;6937;56.096;12.664;2023-04-02T12:47:21;102828.44;;;12.47;90.04
13732;BME280;6937;56.096;12.664;2023-04-02T12:49:46;102842.78;;;12.46;82.23
13732;BME280;6937;56.096;12.664;2023-04-02T12:52:15;102864.34;;;12.63;79.45
13732;BME280;6937;56.096;12.664;2023-04-02T12:55:01;102882.38;;;12.78;76.93
13732;BME280;6937;56.096;12.664;2023-04-02T12:57:33;102883.94;;;12.82;74.52
13732;BME280;6937;56.096;12.664;2023-04-02T13:00:00;102904.31;;;12.86;73.14
13732;BME280;6937;56.096;12.664;2023-04-02T13:02:40;102923.34;;;13.00;70.74
13732;BME280;6937;56.096;12.664;2023-04-02T13:05:08;102930.16;;;13.07;70.16
13732;BME280;6937;56.096;12.664;2023-04-02T13:07:35;102936.69;;;13.21;68.58
13732;BME280;6937;56.096;12.664;2023-04-02T13:10:17;102985.16;;;13.36;67.53
13732;BME280;6937;56.096;12.664;2023-04-02T13:12:47;103008.25;;;13.40;65.45
13732;BME280;6937;56.096;12.664;2023-04-02T13:15:27;103015.41;;;13.59;63.66
13732;BME280;6937;56.096;12.664;2023-04-02T13:18:21;103025.75;;;13.85;64.18
13732;BME280;6937;56.096;12.664;2023-04-02T13:25:51;103087.13;;;13.00;54.39
13732;BME280;6937;56.096;12.664;2023-04-02T13:28:18;103094.63;;;12.92;54.73
13732;BME280;6937;56.096;12.664;2023-04-02T13:30:43;103102.75;;;13.11;56.64
13732;BME280;6937;56.096;12.664;2023-04-02T13:33:10;103087.59;;;13.29;57.14
13732;BME280;6937;56.096;12.664;2023-04-02T13:35:36;103072.88;;;13.56;56.63
13732;BME280;6937;56.096;12.664;2023-04-02T13:38:01;103073.84;;;13.72;56.17
13732;BME280;6937;56.096;12.664;2023-04-02T13:40:28;103084.16;;;13.81;55.12
13732;BME280;6937;56.096;12.664;2023-04-02T13:42:53;103067.44;;;13.93;54.51
13732;BME280;6937;56.096;12.664;2023-04-02T13:47:49;103109.81;;;12.73;49.63
13732;BME280;6937;56.096;12.664;2023-04-02T13:50:16;103127.66;;;12.54;47.73
13732;BME280;6937;56.096;12.664;2023-04-02T13:52:42;102932.50;;;12.78;49.96
13732;BME280;6937;56.096;12.664;2023-04-02T13:55:07;102927.38;;;13.28;51.48
13732;BME280;6937;56.096;12.664;2023-04-02T13:57:34;102928.84;;;13.16;50.53
13732;BME280;6937;56.096;12.664;2023-04-02T14:00:00;102909.13;;;12.61;47.45
13732;BME280;6937;56.096;12.664;2023-04-02T14:02:26;102898.09;;;11.89;47.67
13732;BME280;6937;56.096;12.664;2023-04-02T14:04:56;102903.66;;;12.05;48.93
13732;BME280;6937;56.096;12.664;2023-04-02T14:07:49;102896.94;;;12.54;49.18
13732;BME280;6937;56.096;12.664;2023-04-02T14:10:19;102915.94;;;13.05;49.06
13732;BME280;6937;56.096;12.664;2023-04-02T14:15:32;102897.50;;;13.87;49.03
13732;BME280;6937;56.096;12.664;2023-04-02T14:18:21;102891.22;;;14.03;48.22
13732;BME280;6937;56.096;12.664;2023-04-02T14:26:53;102880.97;;;13.94;46.13
13732;BME280;6937;56.096;12.664;2023-04-02T14:29:24;102872.34;;;13.53;46.22
13732;BME280;6937;56.096;12.664;2023-04-02T14:34:32;102882.41;;;14.01;45.71
13732;BME280;6937;56.096;12.664;2023-04-02T14:37:26;102872.13;;;14.25;45.83
13732;BME280;6937;56.096;12.664;2023-04-02T14:40:17;102882.22;;;14.55;46.13
13732;BME280;6937;56.096;12.664;2023-04-02T14:42:52;102888.03;;;15.10;44.61
13732;BME280;6937;56.096;12.664;2023-04-02T14:48:19;102888.78;;;15.59;43.87
13732;BME280;6937;56.096;12.664;2023-04-02T14:50:55;102892.22;;;15.90;42.66
13732;BME280;6937;56.096;12.664;2023-04-02T14:53:26;102886.88;;;16.19;41.89
13732;BME280;6937;56.096;12.664;2023-04-02T14:55:55;102890.44;;;16.62;41.13
13732;BME280;6937;56.096;12.664;2023-04-02T14:58:43;102889.41;;;16.91;39.98
13732;BME280;6937;56.096;12.664;2023-04-02T15:01:20;102884.81;;;16.93;39.03
13732;BME280;6937;56.096;12.664;2023-04-02T15:03:53;102877.88;;;17.16;38.81
13732;BME280;6937;56.096;12.664;2023-04-02T15:06:30;102873.88;;;17.21;38.90
13732;BME280;6937;56.096;12.664;2023-04-02T15:09:01;102863.19;;;17.20;38.03
13732;BME280;6937;56.096;12.664;2023-04-02T15:11:35;102859.06;;;17.14;37.74
13732;BME280;6937;56.096;12.664;2023-04-02T15:14:05;102857.22;;;16.88;37.47
13732;BME280;6937;56.096;12.664;2023-04-02T15:16:36;102859.25;;;16.84;37.38
13732;BME280;6937;56.096;12.664;2023-04-02T15:19:03;102840.47;;;16.83;37.10
13732;BME280;6937;56.096;12.664;2023-04-02T15:32:39;102820.81;;;16.67;36.39
13732;BME280;6937;56.096;12.664;2023-04-02T15:40:37;102804.91;;;16.48;35.59
13732;BME280;6937;56.096;12.664;2023-04-02T15:43:15;102810.25;;;16.21;35.64
13732;BME280;6937;56.096;12.664;2023-04-02T15:45:52;102806.69;;;16.21;36.25
13732;BME280;6937;56.096;12.664;2023-04-02T15:51:43;102786.72;;;16.23;33.66
13732;BME280;6937;56.096;12.664;2023-04-02T15:54:29;102783.75;;;16.00;34.00
13732;BME280;6937;56.096;12.664;2023-04-02T15:59:54;102754.56;;;14.74;33.59
13732;BME280;6937;56.096;12.664;2023-04-02T16:02:39;102740.47;;;14.07;35.43
13732;BME280;6937;56.096;12.664;2023-04-02T16:05:18;102743.84;;;13.62;36.07